Time;durP1;ratioP1;P1;durP2;ratioP2;P2;SDS_P1;SDS_P2;PMS_P1;PMS_P2;Temp;Humidity;BMP_temperature;BMP_pressure;BME280_temperature;BME280_humidity;BME280_pressure;Samples;Min_cycle;Max_cycle;Signal;HPM_P1;HPM_P2
2023/03/17 00:00:04;;;;;;;;;;;12.30;79.20;12.60;99197.00;;;;340877;28;82538;-91
2023/03/17 00:00:16;;;;;;;;;;;12.20;79.30;12.60;99193.00;;;;338983;28;91892;-92
2023/03/17 00:00:28;;;;;;;;;;;12.20;79.20;12.60;99202.00;;;;340813;28;82498;-91
2023/03/17 00:00:42;;;;;;;;;;;12.30;79.40;12.60;99198.00;;;;340364;28;91377;-91
2023/03/17 00:00:54;;;;;;;;;;;12.20;79.30;12.60;99210.00;;;;338130;28;83353;-92
2023/03/17 00:01:06;;;;;;;;;;;12.30;79.30;12.50;99191.00;;;;338988;28;91328;-92
2023/03/17 00:01:18;;;;;;;;;;;12.20;79.20;12.50;99199.00;;;;339452;28;82474;-91
2023/03/17 00:01:30;;;;;;;;;;;12.20;79.40;12.50;99208.00;;;;340345;28;91917;-91
2023/03/17 00:01:43;;;;;;;;;;;12.20;79.40;12.50;99215.00;;;;340768;28;82561;-92
2023/03/17 00:01:55;;;;;;;;;;;12.20;79.40;12.60;99194.00;;;;341618;28;91490;-90
2023/03/17 00:02:07;;;;;;;;;;;12.20;79.40;12.60;99188.00;;;;339373;28;83512;-92
2023/03/17 00:02:19;;;;;;;;;;;12.20;79.40;12.60;99202.00;;;;338693;28;91800;-91
2023/03/17 00:02:31;;;;;;;;;;;12.20;79.60;12.60;99204.00;;;;340793;28;82493;-91
2023/03/17 00:02:44;;;;;;;;;;;12.20;79.50;12.60;99195.00;;;;341641;28;90676;-91
2023/03/17 00:02:58;;;;;;;;;;;12.20;79.40;12.60;99204.00;;;;344706;28;83532;-92
2023/03/17 00:03:25;;;;;;;;;;;12.20;79.50;12.60;99208.00;;;;338899;28;92594;-92
2023/03/17 00:03:40;;;;;;;;;;;12.20;79.70;12.60;99196.00;;;;339409;28;83414;-91
2023/03/17 00:03:52;;;;;;;;;;;12.20;79.60;12.60;99196.00;;;;340240;28;90458;-92
2023/03/17 00:04:04;;;;;;;;;;;12.20;79.50;12.60;99191.00;;;;343383;28;82506;-91
2023/03/17 00:04:19;;;;;;;;;;;12.20;79.40;12.60;99199.00;;;;340255;28;90546;-91
2023/03/17 00:04:32;;;;;;;;;;;12.20;79.50;12.60;99198.00;;;;342033;28;83351;-92
2023/03/17 00:04:44;;;;;;;;;;;12.20;79.50;12.60;99174.00;;;;340305;28;90530;-91
2023/03/17 00:04:56;;;;;;;;;;;12.20;79.70;12.60;99190.00;;;;340756;28;82517;-91
2023/03/17 00:05:22;;;;;;;;;;;12.20;79.50;12.60;99201.00;;;;338872;28;91742;-91
2023/03/17 00:05:34;;;;;;;;;;;12.20;79.70;12.50;99178.00;;;;342106;28;83338;-91
2023/03/17 00:05:46;;;;;;;;;;;12.20;79.70;12.50;99196.00;;;;340194;28;92510;-91
2023/03/17 00:05:58;;;;;;;;;;;12.20;79.80;12.60;99208.00;;;;338023;28;82410;-91
2023/03/17 00:06:16;;;;;;;;;;;12.20;79.70;12.50;99210.00;;;;340197;28;90335;-92
2023/03/17 00:06:29;;;;;;;;;;;12.20;80.00;12.50;99210.00;;;;339450;28;82528;-91
2023/03/17 00:06:41;;;;;;;;;;;12.20;80.10;12.50;99197.00;;;;340351;28;91350;-91
2023/03/17 00:06:54;;;;;;;;;;;12.20;80.10;12.50;99193.00;;;;342025;28;83384;-91
2023/03/17 00:07:07;;;;;;;;;;;12.20;80.10;12.60;99204.00;;;;340303;28;89083;-91
2023/03/17 00:07:18;;;;;;;;;;;12.20;79.90;12.50;99189.00;;;;340799;28;82350;-91
2023/03/17 00:07:30;;;;;;;;;;;12.20;80.00;12.50;99203.00;;;;340220;28;90746;-91
2023/03/17 00:07:43;;;;;;;;;;;12.20;79.90;12.60;99209.00;;;;339428;28;82545;-91
2023/03/17 00:07:55;;;;;;;;;;;12.20;80.00;12.60;99202.00;;;;338893;28;91653;-90
2023/03/17 00:08:14;;;;;;;;;;;12.20;80.20;12.50;99198.00;;;;340682;28;83418;-91
2023/03/17 00:08:28;;;;;;;;;;;12.20;80.20;12.50;99193.00;;;;341621;28;91886;-90
2023/03/17 00:08:40;;;;;;;;;;;12.20;80.10;12.50;99199.00;;;;342097;28;83367;-91
2023/03/17 00:08:51;;;;;;;;;;;12.20;80.20;12.50;99207.00;;;;340198;28;91468;-91
2023/03/17 00:09:03;;;;;;;;;;;12.20;80.10;12.60;99191.00;;;;343227;28;82587;-91
2023/03/17 00:09:16;;;;;;;;;;;12.20;80.00;12.60;99206.00;;;;341546;28;91564;-91
2023/03/17 00:09:28;;;;;;;;;;;12.20;80.10;12.50;99210.00;;;;339430;28;83365;-91
2023/03/17 00:09:40;;;;;;;;;;;12.20;80.20;12.50;99186.00;;;;337666;28;87959;-90
2023/03/17 00:09:52;;;;;;;;;;;12.20;80.20;12.50;99203.00;;;;338152;28;82761;-91
2023/03/17 00:10:09;;;;;;;;;;;12.10;80.20;12.50;99196.00;;;;338060;28;91121;-91
2023/03/17 00:10:22;;;;;;;;;;;12.10;80.30;12.50;99209.00;;;;342067;28;83426;-91
2023/03/17 00:10:35;;;;;;;;;;;12.10;80.40;12.50;99207.00;;;;341662;28;91688;-91
2023/03/17 00:10:47;;;;;;;;;;;12.10;80.50;12.40;99188.00;;;;339394;28;83487;-91
2023/03/17 00:10:59;;;;;;;;;;;12.20;80.50;12.50;99191.00;;;;341595;28;91075;-91
2023/03/17 00:11:15;;;;;;;;;;;12.10;80.40;12.50;99195.00;;;;342080;28;83347;-91
2023/03/17 00:11:27;;;;;;;;;;;12.10;80.60;12.50;99198.00;;;;337747;28;89347;-91
2023/03/17 00:11:39;;;;;;;;;;;12.10;80.80;12.50;99196.00;;;;341935;28;83519;-91
2023/03/17 00:11:51;;;;;;;;;;;12.10;80.80;12.50;99196.00;;;;342928;28;91627;-91
2023/03/17 00:12:09;;;;;;;;;;;12.10;80.80;12.50;99194.00;;;;341946;28;83499;-91
2023/03/17 00:12:21;;;;;;;;;;;12.10;80.80;12.50;99185.00;;;;343009;28;92800;-91
2023/03/17 00:12:32;;;;;;;;;;;12.10;80.60;12.50;99195.00;;;;338093;28;83410;-91
2023/03/17 00:12:44;;;;;;;;;;;12.10;80.40;12.50;99202.00;;;;341593;28;91293;-91
2023/03/17 00:12:56;;;;;;;;;;;12.10;80.50;12.50;99188.00;;;;340694;28;82598;-90
2023/03/17 00:13:09;;;;;;;;;;;12.10;80.50;12.50;99191.00;;;;341677;28;91383;-90
2023/03/17 00:13:21;;;;;;;;;;;12.10;80.60;12.50;99184.00;;;;342150;28;82461;-91
2023/03/17 00:13:34;;;;;;;;;;;12.10;80.50;12.50;99190.00;;;;338873;28;91482;-91
2023/03/17 00:13:46;;;;;;;;;;;12.10;80.50;12.50;99194.00;;;;340738;28;82507;-91
2023/03/17 00:13:57;;;;;;;;;;;12.10;80.60;12.50;99196.00;;;;343111;28;87921;-91
2023/03/17 00:14:09;;;;;;;;;;;12.10;80.60;12.50;99198.00;;;;341873;28;82551;-91
2023/03/17 00:14:21;;;;;;;;;;;12.10;80.70;12.40;99197.00;;;;341464;28;92229;-91
2023/03/17 00:14:33;;;;;;;;;;;12.10;80.90;12.50;99196.00;;;;340731;28;83405;-91
2023/03/17 00:14:45;;;;;;;;;;;12.10;80.80;12.50;99189.00;;;;340439;28;88382;-91
2023/03/17 00:14:57;;;;;;;;;;;12.10;80.70;12.50;99190.00;;;;343322;28;83464;-92
2023/03/17 00:15:09;;;;;;;;;;;12.10;80.70;12.50;99195.00;;;;341863;28;89134;-91
2023/03/17 00:15:22;;;;;;;;;;;12.10;80.70;12.50;99197.00;;;;340571;28;83338;-91
2023/03/17 00:15:33;;;;;;;;;;;12.10;80.70;12.50;99181.00;;;;340120;28;90635;-91
2023/03/17 00:15:48;;;;;;;;;;;12.10;80.80;12.50;99211.00;;;;341990;28;83602;-91
2023/03/17 00:16:01;;;;;;;;;;;12.10;80.70;12.50;99187.00;;;;341360;28;90694;-90
2023/03/17 00:16:24;;;;;;;;;;;12.10;80.70;12.50;99192.00;;;;342080;28;83092;-91
2023/03/17 00:16:37;;;;;;;;;;;12.20;80.80;12.50;99196.00;;;;341368;28;92476;-90
2023/03/17 00:16:50;;;;;;;;;;;12.10;80.80;12.60;99196.00;;;;343462;28;83457;-91
2023/03/17 00:17:01;;;;;;;;;;;12.10;80.70;12.50;99196.00;;;;340255;28;90815;-91
2023/03/17 00:17:13;;;;;;;;;;;12.10;81.10;12.50;99194.00;;;;340857;28;82401;-91
2023/03/17 00:17:25;;;;;;;;;;;12.10;81.10;12.50;99188.00;;;;341646;28;90528;-91
2023/03/17 00:17:37;;;;;;;;;;;12.10;81.00;12.50;99187.00;;;;339358;28;82592;-91
2023/03/17 00:17:49;;;;;;;;;;;12.10;80.90;12.50;99191.00;;;;340322;28;91743;-90
2023/03/17 00:18:01;;;;;;;;;;;12.10;80.90;12.50;99181.00;;;;339321;28;83563;-91
2023/03/17 00:18:15;;;;;;;;;;;12.10;81.30;12.50;99190.00;;;;338667;28;90580;-91
2023/03/17 00:18:29;;;;;;;;;;;12.10;81.30;12.60;99201.00;;;;339370;28;83483;-91
2023/03/17 00:18:40;;;;;;;;;;;12.10;81.10;12.50;99175.00;;;;341106;28;92105;-91
2023/03/17 00:18:53;;;;;;;;;;;12.10;81.00;12.50;99195.00;;;;343155;28;82604;-91
2023/03/17 00:19:05;;;;;;;;;;;12.10;80.90;12.60;99193.00;;;;340010;28;90250;-91
2023/03/17 00:19:34;;;;;;;;;;;12.10;81.00;12.50;99182.00;;;;342016;28;82531;-91
2023/03/17 00:19:46;;;;;;;;;;;12.10;81.10;12.50;99187.00;;;;340259;28;90581;-91
2023/03/17 00:19:58;;;;;;;;;;;12.10;81.10;12.50;99195.00;;;;339200;28;83214;-91
2023/03/17 00:20:13;;;;;;;;;;;12.10;81.10;12.50;99175.00;;;;340295;28;91262;-90
2023/03/17 00:20:29;;;;;;;;;;;12.10;81.30;12.50;99177.00;;;;342111;28;82594;-91
2023/03/17 00:20:42;;;;;;;;;;;12.10;81.00;12.50;99183.00;;;;339047;28;88950;-90
2023/03/17 00:20:54;;;;;;;;;;;12.10;81.00;12.50;99181.00;;;;343344;28;83422;-91
2023/03/17 00:21:10;;;;;;;;;;;12.10;81.10;12.50;99186.00;;;;341538;28;91306;-91
2023/03/17 00:21:29;;;;;;;;;;;12.10;81.20;12.50;99189.00;;;;340900;28;82558;-90
2023/03/17 00:21:41;;;;;;;;;;;12.10;81.30;12.50;99183.00;;;;341515;28;91861;-91
2023/03/17 00:21:53;;;;;;;;;;;12.10;81.10;12.50;99192.00;;;;340515;28;83277;-90
2023/03/17 00:22:08;;;;;;;;;;;12.10;81.10;12.50;99184.00;;;;340170;28;89252;-91
2023/03/17 00:22:21;;;;;;;;;;;12.10;81.20;12.50;99191.00;;;;340697;28;82399;-90
2023/03/17 00:22:33;;;;;;;;;;;12.10;81.10;12.60;99201.00;;;;343206;28;90747;-91
2023/03/17 00:22:45;;;;;;;;;;;12.10;81.20;12.50;99196.00;;;;339407;28;82647;-91
2023/03/17 00:22:58;;;;;;;;;;;12.10;81.20;12.50;99188.00;;;;341274;28;89535;-91
2023/03/17 00:23:15;;;;;;;;;;;12.10;81.30;12.50;99193.00;;;;342117;28;82441;-91
2023/03/17 00:23:26;;;;;;;;;;;12.10;81.30;12.50;99197.00;;;;341592;28;92259;-91
2023/03/17 00:23:38;;;;;;;;;;;12.10;81.10;12.50;99187.00;;;;340694;28;83485;-91
2023/03/17 00:23:50;;;;;;;;;;;12.10;81.10;12.50;99195.00;;;;341599;28;91521;-90
2023/03/17 00:24:02;;;;;;;;;;;12.10;81.80;12.50;99197.00;;;;340649;28;83426;-91
2023/03/17 00:24:14;;;;;;;;;;;12.10;81.30;12.50;99181.00;;;;341517;28;91313;-91
2023/03/17 00:24:27;;;;;;;;;;;12.10;81.30;12.50;99191.00;;;;339323;28;83439;-91
2023/03/17 00:24:39;;;;;;;;;;;12.10;81.20;12.50;99187.00;;;;338903;28;88955;-91
2023/03/17 00:24:50;;;;;;;;;;;12.10;81.30;12.50;99192.00;;;;343101;28;83449;-91
2023/03/17 00:25:26;;;;;;;;;;;12.10;81.30;12.50;99199.00;;;;341296;28;90660;-91
2023/03/17 00:25:41;;;;;;;;;;;12.10;81.40;12.50;99204.00;;;;341893;28;82619;-91
2023/03/17 00:25:53;;;;;;;;;;;12.10;81.40;12.50;99185.00;;;;342912;28;92216;-91
2023/03/17 00:26:06;;;;;;;;;;;12.10;81.40;12.40;99190.00;;;;343342;28;83563;-90
2023/03/17 00:26:18;;;;;;;;;;;12.10;81.40;12.50;99185.00;;;;341611;28;90277;-91
2023/03/17 00:26:30;;;;;;;;;;;12.10;81.40;12.50;99189.00;;;;339349;28;83482;-92
2023/03/17 00:26:42;;;;;;;;;;;12.10;81.30;12.50;99194.00;;;;338962;28;90714;-90
2023/03/17 00:26:54;;;;;;;;;;;12.10;81.40;12.40;99180.00;;;;339190;28;83271;-92
2023/03/17 00:27:12;;;;;;;;;;;12.10;81.60;12.50;99179.00;;;;342905;28;91582;-91
2023/03/17 00:27:24;;;;;;;;;;;12.10;81.60;12.50;99187.00;;;;342038;28;82581;-91
2023/03/17 00:27:35;;;;;;;;;;;12.10;81.50;12.50;99176.00;;;;339041;28;90307;-91
2023/03/17 00:27:48;;;;;;;;;;;12.10;81.50;12.40;99168.00;;;;340714;28;83413;-92
2023/03/17 00:28:02;;;;;;;;;;;12.10;81.70;12.40;99192.00;;;;338981;28;91615;-92
2023/03/17 00:28:21;;;;;;;;;;;12.10;81.60;12.50;99191.00;;;;343306;28;83349;-92
2023/03/17 00:28:33;;;;;;;;;;;12.10;81.50;12.50;99183.00;;;;342987;28;91916;-92
2023/03/17 00:28:45;;;;;;;;;;;12.10;81.60;12.50;99203.00;;;;340890;28;83383;-91
2023/03/17 00:28:57;;;;;;;;;;;12.10;81.50;12.40;99193.00;;;;340250;28;90054;-91
2023/03/17 00:29:09;;;;;;;;;;;12.10;81.70;12.40;99182.00;;;;342028;28;83298;-92
2023/03/17 00:29:22;;;;;;;;;;;12.10;81.70;12.50;99187.00;;;;338917;28;91358;-92
2023/03/17 00:29:34;;;;;;;;;;;12.10;81.60;12.50;99185.00;;;;342029;28;83271;-92
2023/03/17 00:29:46;;;;;;;;;;;12.10;81.60;12.50;99197.00;;;;341702;28;90323;-92
2023/03/17 00:29:57;;;;;;;;;;;12.10;81.50;12.50;99194.00;;;;342046;28;83435;-91
2023/03/17 00:30:10;;;;;;;;;;;12.10;81.60;12.50;99192.00;;;;344091;28;92565;-92
2023/03/17 00:30:22;;;;;;;;;;;12.10;81.40;12.40;99175.00;;;;343234;28;83562;-91
2023/03/17 00:30:34;;;;;;;;;;;12.10;81.50;12.40;99184.00;;;;340448;28;90362;-92
2023/03/17 00:30:47;;;;;;;;;;;12.10;81.60;12.50;99199.00;;;;343510;28;83360;-91
2023/03/17 00:30:59;;;;;;;;;;;12.10;81.80;12.40;99186.00;;;;340233;28;91138;-91
2023/03/17 00:31:14;;;;;;;;;;;12.10;81.70;12.40;99198.00;;;;339395;28;82752;-91
2023/03/17 00:31:27;;;;;;;;;;;12.10;81.70;12.40;99188.00;;;;341600;28;90379;-92
2023/03/17 00:31:39;;;;;;;;;;;12.10;81.80;12.50;99196.00;;;;341913;28;83465;-91
2023/03/17 00:31:51;;;;;;;;;;;12.10;81.50;12.50;99181.00;;;;341680;28;90496;-92
2023/03/17 00:32:03;;;;;;;;;;;12.10;81.40;12.50;99181.00;;;;342166;28;82585;-92
2023/03/17 00:32:16;;;;;;;;;;;12.10;81.40;12.50;99182.00;;;;338889;28;91493;-91
2023/03/17 00:32:28;;;;;;;;;;;12.10;81.40;12.40;99193.00;;;;342194;28;82331;-91
2023/03/17 00:32:40;;;;;;;;;;;12.10;81.30;12.50;99186.00;;;;341581;28;92198;-91
2023/03/17 00:32:54;;;;;;;;;;;12.10;81.30;12.50;99186.00;;;;339173;28;83209;-92
2023/03/17 00:33:06;;;;;;;;;;;12.10;81.20;12.50;99191.00;;;;341514;28;91428;-92
2023/03/17 00:33:18;;;;;;;;;;;12.10;81.10;12.50;99183.00;;;;343438;28;82361;-92
2023/03/17 00:33:31;;;;;;;;;;;12.10;81.20;12.50;99181.00;;;;341553;28;90892;-91
2023/03/17 00:33:44;;;;;;;;;;;12.10;81.10;12.50;99183.00;;;;342160;28;82509;-92
2023/03/17 00:33:55;;;;;;;;;;;12.10;81.00;12.50;99193.00;;;;341651;28;90129;-92
2023/03/17 00:34:11;;;;;;;;;;;12.10;81.00;12.50;99192.00;;;;344881;28;83355;-92
2023/03/17 00:34:22;;;;;;;;;;;12.10;81.10;12.50;99200.00;;;;338942;28;92306;-92
2023/03/17 00:34:35;;;;;;;;;;;12.10;81.40;12.50;99200.00;;;;342224;28;83481;-92
2023/03/17 00:34:46;;;;;;;;;;;12.10;81.30;12.50;99200.00;;;;340334;28;90395;-92
2023/03/17 00:34:58;;;;;;;;;;;12.10;81.30;12.50;99196.00;;;;340625;28;83430;-90
2023/03/17 00:35:14;;;;;;;;;;;12.10;81.40;12.40;99181.00;;;;338681;28;92225;-91
2023/03/17 00:35:27;;;;;;;;;;;12.10;81.30;12.50;99186.00;;;;343604;28;83139;-91
2023/03/17 00:35:39;;;;;;;;;;;12.10;81.30;12.50;99189.00;;;;341852;28;90963;-90
2023/03/17 00:35:51;;;;;;;;;;;12.10;81.30;12.40;99172.00;;;;339387;28;83393;-91
2023/03/17 00:36:05;;;;;;;;;;;12.10;81.20;12.40;99188.00;;;;343186;28;90660;-91
2023/03/17 00:36:27;;;;;;;;;;;12.10;81.10;12.40;99200.00;;;;343458;28;83494;-90
2023/03/17 00:36:39;;;;;;;;;;;12.10;81.20;12.40;99180.00;;;;341561;28;89891;-90
2023/03/17 00:36:51;;;;;;;;;;;12.10;81.80;12.40;99190.00;;;;342171;28;82286;-89
2023/03/17 00:37:03;;;;;;;;;;;12.10;81.10;12.40;99198.00;;;;339224;28;90634;-90
2023/03/17 00:37:14;;;;;;;;;;;12.10;81.20;12.40;99186.00;;;;340737;28;82552;-90
2023/03/17 00:37:28;;;;;;;;;;;12.10;81.40;12.40;99191.00;;;;343180;28;90560;-90
2023/03/17 00:37:40;;;;;;;;;;;12.10;81.40;12.40;99194.00;;;;340909;28;83489;-90
2023/03/17 00:37:52;;;;;;;;;;;12.10;81.60;12.40;99189.00;;;;341839;28;90936;-89
2023/03/17 00:38:05;;;;;;;;;;;12.10;81.70;12.40;99194.00;;;;341736;28;83455;-90
2023/03/17 00:38:19;;;;;;;;;;;12.10;81.70;12.40;99204.00;;;;339958;28;90389;-91
2023/03/17 00:38:31;;;;;;;;;;;12.00;81.60;12.40;99194.00;;;;340652;28;83477;-90
2023/03/17 00:38:43;;;;;;;;;;;12.10;81.80;12.40;99176.00;;;;341671;28;93194;-91
2023/03/17 00:38:56;;;;;;;;;;;12.00;81.60;12.40;99190.00;;;;342171;28;83520;-90
2023/03/17 00:39:15;;;;;;;;;;;12.00;81.50;12.40;99191.00;;;;340314;28;91515;-91
2023/03/17 00:39:25;;;;;;;;;;;12.00;81.40;12.40;99194.00;;;;339594;28;82256;-90
2023/03/17 00:39:38;;;;;;;;;;;12.00;81.60;12.40;99199.00;;;;340379;28;91884;-90
2023/03/17 00:39:50;;;;;;;;;;;12.00;81.60;12.40;99195.00;;;;342045;28;83179;-91
2023/03/17 00:40:02;;;;;;;;;;;12.00;81.60;12.40;99187.00;;;;339059;28;91181;-90
2023/03/17 00:40:19;;;;;;;;;;;12.00;81.70;12.40;99190.00;;;;341964;28;82514;-91
2023/03/17 00:40:31;;;;;;;;;;;12.00;81.60;12.40;99198.00;;;;341392;28;89655;-91
2023/03/17 00:40:44;;;;;;;;;;;12.00;81.60;12.40;99190.00;;;;340862;28;82524;-90
2023/03/17 00:40:59;;;;;;;;;;;12.00;81.80;12.40;99190.00;;;;338750;28;92416;-91
2023/03/17 00:41:11;;;;;;;;;;;12.00;81.80;12.40;99197.00;;;;340790;28;83274;-91
2023/03/17 00:41:23;;;;;;;;;;;12.00;81.70;12.40;99202.00;;;;341540;28;91848;-91
2023/03/17 00:41:35;;;;;;;;;;;12.00;81.70;12.30;99200.00;;;;337986;28;83343;-90
2023/03/17 00:41:47;;;;;;;;;;;12.00;81.90;12.30;99192.00;;;;341542;28;91417;-90
2023/03/17 00:41:59;;;;;;;;;;;12.00;82.00;12.30;99200.00;;;;341962;28;83524;-91
2023/03/17 00:42:11;;;;;;;;;;;12.00;82.00;12.40;99189.00;;;;338931;28;90351;-91
2023/03/17 00:42:23;;;;;;;;;;;12.00;81.90;12.40;99195.00;;;;343371;28;82542;-90
2023/03/17 00:42:34;;;;;;;;;;;12.00;81.80;12.40;99194.00;;;;342935;28;91384;-90
2023/03/17 00:42:47;;;;;;;;;;;12.00;81.80;12.40;99205.00;;;;342095;28;83441;-91
2023/03/17 00:42:59;;;;;;;;;;;12.00;81.80;12.40;99195.00;;;;341501;28;92259;-90
2023/03/17 00:43:11;;;;;;;;;;;12.00;81.70;12.40;99189.00;;;;342183;28;83345;-91
2023/03/17 00:43:23;;;;;;;;;;;12.00;81.80;12.40;99198.00;;;;341568;28;91824;-91
2023/03/17 00:43:35;;;;;;;;;;;12.00;81.70;12.40;99174.00;;;;340750;28;82534;-91
2023/03/17 00:43:47;;;;;;;;;;;12.00;81.80;12.40;99202.00;;;;341582;28;91230;-91
2023/03/17 00:43:59;;;;;;;;;;;12.00;81.90;12.40;99200.00;;;;341930;28;83407;-90
2023/03/17 00:44:11;;;;;;;;;;;12.00;81.70;12.40;99195.00;;;;341744;28;91566;-92
2023/03/17 00:44:24;;;;;;;;;;;12.00;81.60;12.40;99182.00;;;;341898;28;83583;-91
2023/03/17 00:44:36;;;;;;;;;;;12.00;81.80;12.40;99190.00;;;;340370;28;87686;-91
2023/03/17 00:44:49;;;;;;;;;;;12.00;81.90;12.40;99208.00;;;;339433;28;82346;-91
2023/03/17 00:45:01;;;;;;;;;;;12.10;81.90;12.40;99191.00;;;;341515;28;92189;-92
2023/03/17 00:45:13;;;;;;;;;;;12.00;81.90;12.50;99194.00;;;;343447;28;83440;-91
2023/03/17 00:45:25;;;;;;;;;;;12.00;81.70;12.40;99188.00;;;;340253;28;91503;-90
2023/03/17 00:45:38;;;;;;;;;;;12.10;81.80;12.50;99189.00;;;;343299;28;83557;-93
2023/03/17 00:45:50;;;;;;;;;;;12.10;81.90;12.40;99182.00;;;;341686;28;90493;-93
2023/03/17 00:46:11;;;;;;;;;;;12.10;81.60;12.40;99205.00;;;;339543;28;83449;-91
2023/03/17 00:46:27;;;;;;;;;;;12.10;81.40;12.40;99185.00;;;;340336;28;91558;-91
2023/03/17 00:46:40;;;;;;;;;;;12.10;81.40;12.40;99193.00;;;;341941;28;83480;-92
2023/03/17 00:46:52;;;;;;;;;;;12.10;81.40;12.40;99185.00;;;;341169;28;89656;-91
2023/03/17 00:47:05;;;;;;;;;;;12.10;81.40;12.50;99194.00;;;;339425;28;82552;-91
2023/03/17 00:47:17;;;;;;;;;;;12.10;81.50;12.50;99182.00;;;;341555;28;91532;-91
2023/03/17 00:47:29;;;;;;;;;;;12.10;81.60;12.40;99193.00;;;;342094;28;83388;-91
2023/03/17 00:47:41;;;;;;;;;;;12.10;81.70;12.40;99186.00;;;;338928;28;92237;-92
2023/03/17 00:47:56;;;;;;;;;;;12.10;81.60;12.40;99188.00;;;;342149;28;83242;-92
2023/03/17 00:48:19;;;;;;;;;;;12.10;81.60;12.40;99179.00;;;;341689;28;91796;-91
2023/03/17 00:48:31;;;;;;;;;;;12.10;81.70;12.40;99185.00;;;;342081;28;82553;-91
2023/03/17 00:48:43;;;;;;;;;;;12.10;81.70;12.40;99191.00;;;;338987;28;89947;-91
2023/03/17 00:48:54;;;;;;;;;;;12.10;81.80;12.40;99196.00;;;;343475;28;82621;-90
2023/03/17 00:49:18;;;;;;;;;;;12.10;81.80;12.40;99193.00;;;;342943;28;90631;-91
2023/03/17 00:49:31;;;;;;;;;;;12.10;81.80;12.40;99188.00;;;;339247;28;83286;-91
2023/03/17 00:49:43;;;;;;;;;;;12.10;82.30;12.40;99193.00;;;;342619;28;91588;-91
2023/03/17 00:49:55;;;;;;;;;;;12.10;82.10;12.40;99195.00;;;;340810;28;83392;-91
2023/03/17 00:50:11;;;;;;;;;;;12.10;81.90;12.40;99186.00;;;;339942;28;90439;-91
2023/03/17 00:50:25;;;;;;;;;;;12.10;81.90;12.40;99183.00;;;;339384;28;83489;-91
2023/03/17 00:50:37;;;;;;;;;;;12.10;82.00;12.40;99179.00;;;;341838;28;90449;-91
2023/03/17 00:50:49;;;;;;;;;;;12.10;82.00;12.40;99198.00;;;;342265;28;82504;-92
2023/03/17 00:51:01;;;;;;;;;;;12.10;81.90;12.50;99201.00;;;;340256;28;91538;-91
2023/03/17 00:51:14;;;;;;;;;;;12.10;82.00;12.40;99182.00;;;;340839;28;83300;-92
2023/03/17 00:51:26;;;;;;;;;;;12.10;82.00;12.40;99189.00;;;;340284;28;90278;-90
2023/03/17 00:51:38;;;;;;;;;;;12.10;82.10;12.40;99184.00;;;;340717;28;83530;-91
2023/03/17 00:51:50;;;;;;;;;;;12.10;82.20;12.40;99184.00;;;;342933;28;92230;-92
2023/03/17 00:52:02;;;;;;;;;;;12.00;82.00;12.40;99198.00;;;;342046;28;83252;-92
2023/03/17 00:52:13;;;;;;;;;;;12.00;82.10;12.50;99198.00;;;;338927;28;90637;-91
2023/03/17 00:52:25;;;;;;;;;;;12.10;82.10;12.40;99195.00;;;;340629;28;82539;-91
2023/03/17 00:52:37;;;;;;;;;;;12.10;82.20;12.40;99190.00;;;;341842;28;88702;-91
2023/03/17 00:52:50;;;;;;;;;;;12.00;82.10;12.40;99200.00;;;;344541;28;82324;-91
2023/03/17 00:53:02;;;;;;;;;;;12.00;82.30;12.40;99195.00;;;;341522;28;89851;-92
2023/03/17 00:53:18;;;;;;;;;;;12.00;82.20;12.40;99195.00;;;;340815;28;83310;-92
2023/03/17 00:53:29;;;;;;;;;;;12.00;82.30;12.40;99207.00;;;;342874;28;91586;-91
2023/03/17 00:53:42;;;;;;;;;;;12.00;82.50;12.40;99191.00;;;;342005;28;83423;-91
2023/03/17 00:53:54;;;;;;;;;;;12.10;82.50;12.40;99199.00;;;;340129;28;93755;-92
2023/03/17 00:54:06;;;;;;;;;;;12.00;82.40;12.40;99193.00;;;;343396;28;83437;-92
2023/03/17 00:54:19;;;;;;;;;;;12.00;82.30;12.40;99198.00;;;;342937;28;90192;-92
2023/03/17 00:54:31;;;;;;;;;;;12.00;82.40;12.40;99198.00;;;;343362;28;82538;-92
2023/03/17 00:54:43;;;;;;;;;;;12.10;82.70;12.40;99223.00;;;;341677;28;91201;-91
2023/03/17 00:54:55;;;;;;;;;;;12.00;82.60;12.40;99200.00;;;;340531;28;82981;-91
2023/03/17 00:55:07;;;;;;;;;;;12.00;82.50;12.40;99202.00;;;;338970;28;92066;-91
2023/03/17 00:55:20;;;;;;;;;;;12.00;82.60;12.40;99201.00;;;;341548;28;82536;-91
2023/03/17 00:55:31;;;;;;;;;;;12.00;82.70;12.40;99190.00;;;;340211;28;92096;-91
2023/03/17 00:55:44;;;;;;;;;;;12.00;82.80;12.40;99190.00;;;;341006;28;84363;-91
2023/03/17 00:55:55;;;;;;;;;;;12.00;82.80;12.40;99186.00;;;;341571;28;91208;-91
2023/03/17 00:56:15;;;;;;;;;;;12.00;82.90;12.40;99188.00;;;;342097;28;83397;-91
2023/03/17 00:56:27;;;;;;;;;;;12.00;83.00;12.40;99196.00;;;;340068;28;90716;-91
2023/03/17 00:56:39;;;;;;;;;;;12.00;82.70;12.40;99189.00;;;;342014;28;83379;-91
2023/03/17 00:56:51;;;;;;;;;;;12.00;82.80;12.40;99196.00;;;;340143;28;91880;-91
2023/03/17 00:57:03;;;;;;;;;;;12.10;83.00;12.40;99182.00;;;;340750;28;83343;-91
2023/03/17 00:57:15;;;;;;;;;;;12.00;82.90;12.40;99193.00;;;;341667;28;91165;-91
2023/03/17 00:57:27;;;;;;;;;;;12.00;82.90;12.40;99204.00;;;;343214;28;82611;-92
2023/03/17 00:57:39;;;;;;;;;;;12.00;82.90;12.40;99175.00;;;;340088;28;91517;-92
2023/03/17 00:57:51;;;;;;;;;;;12.00;83.00;12.40;99184.00;;;;341830;28;83567;-91
2023/03/17 00:58:11;;;;;;;;;;;12.00;83.00;12.40;99186.00;;;;341534;28;92321;-91
2023/03/17 00:58:27;;;;;;;;;;;12.00;83.00;12.40;99198.00;;;;340570;28;83387;-92
2023/03/17 00:58:39;;;;;;;;;;;12.00;83.00;12.40;99191.00;;;;341610;28;91780;-91
2023/03/17 00:58:51;;;;;;;;;;;12.00;82.90;12.40;99183.00;;;;337916;28;83464;-91
2023/03/17 00:59:03;;;;;;;;;;;12.00;82.90;12.40;99174.00;;;;340200;28;91115;-91
2023/03/17 00:59:19;;;;;;;;;;;12.00;82.90;12.40;99181.00;;;;340686;28;82534;-91
2023/03/17 00:59:37;;;;;;;;;;;12.00;82.90;12.40;99182.00;;;;341501;28;90248;-91
2023/03/17 00:59:50;;;;;;;;;;;12.00;82.90;12.40;99176.00;;;;343370;28;83312;-91
2023/03/17 01:00:03;;;;;;;;;;;12.00;82.90;12.40;99206.00;;;;339020;28;90377;-92
2023/03/17 01:00:28;;;;;;;;;;;12.00;83.00;12.40;99185.00;;;;339321;28;83523;-91
2023/03/17 01:00:40;;;;;;;;;;;12.00;83.10;12.40;99166.00;;;;338784;28;92543;-91
2023/03/17 01:00:52;;;;;;;;;;;12.00;83.00;12.40;99178.00;;;;340637;28;82476;-91
2023/03/17 01:01:04;;;;;;;;;;;12.00;83.90;12.40;99190.00;;;;341621;28;90566;-90
2023/03/17 01:01:17;;;;;;;;;;;12.00;83.30;12.40;99177.00;;;;339279;28;83463;-91
2023/03/17 01:01:29;;;;;;;;;;;12.00;83.20;12.40;99178.00;;;;340023;28;91164;-91
2023/03/17 01:01:40;;;;;;;;;;;12.00;83.20;12.40;99176.00;;;;340642;28;83556;-91
2023/03/17 01:01:52;;;;;;;;;;;12.00;83.20;12.40;99180.00;;;;343908;28;89629;-91
2023/03/17 01:02:04;;;;;;;;;;;12.00;83.30;12.40;99182.00;;;;343373;28;83361;-91
2023/03/17 01:02:17;;;;;;;;;;;12.00;83.20;12.40;99183.00;;;;338932;28;91164;-91
2023/03/17 01:02:29;;;;;;;;;;;12.00;83.10;12.40;99183.00;;;;340739;28;82478;-91
2023/03/17 01:02:41;;;;;;;;;;;12.00;83.20;12.40;99188.00;;;;340183;28;92145;-92
2023/03/17 01:02:54;;;;;;;;;;;12.00;83.30;12.30;99189.00;;;;341969;28;83356;-92
2023/03/17 01:03:08;;;;;;;;;;;12.00;83.40;12.30;99185.00;;;;343176;28;90406;-91
2023/03/17 01:03:20;;;;;;;;;;;12.00;83.20;12.40;99207.00;;;;341811;28;82474;-91
2023/03/17 01:03:31;;;;;;;;;;;12.00;83.10;12.30;99193.00;;;;337685;28;90449;-92
2023/03/17 01:03:44;;;;;;;;;;;12.00;83.50;12.30;99187.00;;;;340661;28;83476;-90
2023/03/17 01:03:56;;;;;;;;;;;12.00;83.50;12.40;99190.00;;;;341704;28;89045;-92
2023/03/17 01:04:09;;;;;;;;;;;12.00;83.30;12.40;99189.00;;;;343351;28;83418;-91
2023/03/17 01:04:21;;;;;;;;;;;12.00;83.20;12.40;99185.00;;;;340218;28;91001;-92
2023/03/17 01:04:34;;;;;;;;;;;12.00;83.20;12.30;99179.00;;;;342019;28;83286;-92
2023/03/17 01:04:45;;;;;;;;;;;12.00;83.20;12.30;99190.00;;;;340255;28;92216;-92
2023/03/17 01:05:10;;;;;;;;;;;12.00;83.20;12.30;99196.00;;;;339375;28;83232;-91